Time;durP1;ratioP1;P1;durP2;ratioP2;P2;SDS_P1;SDS_P2;PMS_P1;PMS_P2;Temp;Humidity;BMP_temperature;BMP_pressure;BME280_temperature;BME280_humidity;BME280_pressure;Samples;Min_cycle;Max_cycle;Signal;HPM_P1;HPM_P2
2022/08/16 00:00:33;;;;;;;9.87;6.17;;;;;;;20.71;69.64;99281.28;29918640;29;97466;-58
2022/08/16 00:15:44;;;;;;;10.03;6.10;;;;;;;20.70;70.13;99285.06;29917843;29;96881;-66
2022/08/16 00:30:45;;;;;;;9.97;6.17;;;;;;;20.67;70.28;99295.53;29916769;29;97354;-61
2022/08/16 00:46:20;;;;;;;7.70;5.93;;;;;;;20.45;70.96;99291.88;29914139;29;96748;-58
2022/08/16 01:01:21;;;;;;;11.07;6.00;;;;;;;20.25;71.64;99289.78;29914030;29;97501;-58
2022/08/16 01:16:24;;;;;;;9.20;6.57;;;;;;;20.00;72.42;99324.69;29912936;29;96785;-58
2022/08/16 01:31:25;;;;;;;8.50;6.73;;;;;;;19.68;72.98;99312.66;29911373;29;97528;-65
2022/08/16 01:46:46;;;;;;;9.73;7.23;;;;;;;19.43;73.56;99316.69;29909311;29;97059;-57
2022/08/16 02:01:49;;;;;;;;;;;;;;;19.21;74.28;99323.97;29908082;29;96873;-58
2022/08/16 02:16:49;;;;;;;10.00;6.97;;;;;;;18.89;74.88;99322.69;29908106;29;97483;-58
2022/08/16 02:31:51;;;;;;;9.35;6.82;;;;;;;18.72;75.97;99335.31;29905878;29;97201;-58
2022/08/16 02:46:51;;;;;;;12.50;8.27;;;;;;;18.67;76.37;99335.22;29903006;29;96842;-57
2022/08/16 03:01:52;;;;;;;13.97;7.90;;;;;;;18.58;76.67;99346.44;29902173;29;97655;-59
2022/08/16 03:16:53;;;;;;;11.55;7.43;;;;;;;18.47;77.42;99349.22;29900111;29;97390;-59
2022/08/16 03:31:54;;;;;;;13.33;8.50;;;;;;;18.32;77.54;99368.63;29899966;29;97722;-60
2022/08/16 03:46:54;;;;;;;13.18;8.50;;;;;;;18.16;77.97;99367.50;29899200;29;96830;-57
2022/08/16 04:01:55;;;;;;;23.15;10.68;;;;;;;18.11;78.37;99376.28;29897185;29;97328;-58
2022/08/16 04:16:55;;;;;;;11.55;8.52;;;;;;;18.13;78.63;99400.34;29904183;29;96794;-61
2022/08/16 04:31:56;;;;;;;13.20;8.88;;;;;;;18.33;78.81;99425.00;29913243;29;97019;-60
2022/08/16 04:46:56;;;;;;;10.50;8.50;;;;;;;18.59;78.78;99436.28;29906668;29;97347;-62
2022/08/16 05:01:57;;;;;;;15.30;8.35;;;;;;;19.01;78.70;99435.13;29893773;29;97314;-57
2022/08/16 05:16:57;;;;;;;14.18;8.25;;;;;;;19.55;78.01;99443.53;29893191;29;104645;-59
2022/08/16 05:31:58;;;;;;;10.82;7.38;;;;;;;20.11;77.34;99461.63;29895364;29;98710;-58
2022/08/16 05:47:00;;;;;;;10.00;7.63;;;;;;;20.61;76.68;99471.41;29905118;29;97441;-58
2022/08/16 06:02:00;;;;;;;12.03;8.00;;;;;;;21.22;75.92;99469.56;29905555;29;96770;-58
2022/08/16 06:17:01;;;;;;;16.20;12.93;;;;;;;22.14;74.82;99467.47;29903410;29;98529;-59
2022/08/16 06:32:01;;;;;;;12.87;7.40;;;;;;;23.24;73.10;99489.22;29902982;29;96808;-57
2022/08/16 06:47:02;;;;;;;10.05;6.47;;;;;;;24.50;69.67;99494.94;29900428;29;96879;-60
2022/08/16 07:02:03;;;;;;;9.05;5.60;;;;;;;25.54;64.49;99506.00;29898939;29;97349;-60
2022/08/16 07:17:04;;;;;;;7.15;5.25;;;;;;;26.38;59.45;99504.84;29898692;29;96995;-60
2022/08/16 07:32:05;;;;;;;7.17;5.03;;;;;;;26.93;56.34;99504.38;29897319;29;97085;-58
2022/08/16 07:47:06;;;;;;;8.63;4.80;;;;;;;27.61;53.53;99514.00;29897484;29;97296;-62
2022/08/16 08:02:06;;;;;;;6.22;5.25;;;;;;;27.28;50.17;99522.16;29909794;29;103655;-58
2022/08/16 08:17:06;;;;;;;10.98;4.95;;;;;;;28.62;48.10;99521.63;29913289;29;97013;-60
2022/08/16 08:32:08;;;;;;;8.18;5.13;;;;;;;30.20;44.49;99532.59;29911043;29;97438;-59
2022/08/16 08:47:09;;;;;;;5.70;4.83;;;;;;;31.33;41.66;99547.69;29910357;29;97380;-65
2022/08/16 09:02:10;;;;;;;7.20;5.00;;;;;;;32.43;39.46;99543.63;29910358;29;96664;-61
2022/08/16 09:17:11;;;;;;;5.87;4.63;;;;;;;33.85;36.70;99555.97;29910288;29;97038;-61
2022/08/16 09:32:12;;;;;;;5.60;4.90;;;;;;;39.25;28.48;99552.94;29909235;29;97302;-61
2022/08/16 09:47:12;;;;;;;7.65;4.80;;;;;;;37.66;30.48;99547.75;29905952;29;97006;-61
2022/08/16 10:02:13;;;;;;;6.05;5.22;;;;;;;38.23;28.95;99541.59;29904022;29;97096;-68
2022/08/16 10:17:13;;;;;;;7.20;5.68;;;;;;;37.57;29.63;99566.63;29902853;29;114141;-72
2022/08/16 10:32:13;;;;;;;9.70;5.30;;;;;;;37.16;29.75;99557.91;29900810;29;96759;-59
2022/08/16 10:47:14;;;;;;;6.68;5.20;;;;;;;37.23;30.14;99561.59;29901438;29;101923;-60
2022/08/16 11:02:14;;;;;;;5.80;5.10;;;;;;;36.88;29.90;99547.78;29902007;29;96761;-62
2022/08/16 11:17:14;;;;;;;7.15;5.07;;;;;;;37.73;28.56;99547.88;29900469;29;97344;-63
2022/08/16 11:32:16;;;;;;;5.15;4.65;;;;;;;37.85;27.18;99540.56;29897852;29;98297;-59
2022/08/16 11:47:17;;;;;;;8.07;4.60;;;;;;;38.32;26.92;99541.34;29903343;29;98264;-60
2022/08/16 12:02:17;;;;;;;7.85;4.45;;;;;;;37.75;27.24;99545.53;29901921;29;97481;-60
2022/08/16 12:17:18;;;;;;;8.43;4.32;;;;;;;38.00;26.24;99528.50;29901213;29;98544;-67
2022/08/16 12:32:19;;;;;;;6.55;4.22;;;;;;;37.56;26.54;99531.69;29901046;29;96818;-70
2022/08/16 13:02:45;;;;;;;6.10;4.07;;;;;;;37.62;26.06;99494.09;29895461;29;97190;-61
2022/08/16 13:17:45;;;;;;;7.17;3.90;;;;;;;37.19;26.44;99496.06;29897259;29;98919;-65
2022/08/16 13:32:46;;;;;;;8.27;4.95;;;;;;;36.79;26.86;99488.91;29889297;29;97326;-59
2022/08/16 13:47:47;;;;;;;5.63;4.30;;;;;;;36.71;26.76;99472.09;29887923;29;98532;-62
2022/08/16 14:02:47;;;;;;;7.70;3.85;;;;;;;35.23;27.95;99456.69;29895752;29;98871;-60
2022/08/16 14:17:55;;;;;;;5.60;3.80;;;;;;;34.65;29.26;99451.47;31199351;28;96746;-64
2022/08/16 14:32:56;;;;;;;7.90;4.10;;;;;;;34.13;29.56;99466.88;31186379;27;97888;-61
2022/08/16 14:47:56;;;;;;;5.50;3.90;;;;;;;33.93;29.09;99463.91;31168073;27;96853;-61
2022/08/16 15:02:59;;;;;;;7.68;4.40;;;;;;;33.76;29.76;99459.38;31112454;28;96712;-58
2022/08/16 15:18:00;;;;;;;6.17;4.23;;;;;;;33.22;31.02;99458.34;31108139;27;96853;-61
2022/08/16 15:33:03;;;;;;;6.73;4.00;;;;;;;32.61;31.49;99458.88;31037022;28;97552;-61
2022/08/16 15:48:04;;;;;;;6.43;4.10;;;;;;;32.32;31.60;99468.78;31012626;28;97092;-61
2022/08/16 16:03:13;;;;;;;5.70;3.78;;;;;;;31.81;32.80;99476.16;31037564;28;96745;-60
2022/08/16 16:18:14;;;;;;;5.90;3.80;;;;;;;31.58;33.11;99489.34;31030846;28;97296;-59
2022/08/16 16:33:20;;;;;;;5.57;3.90;;;;;;;31.37;33.63;99493.63;31025808;28;96795;-60
2022/08/16 16:48:20;;;;;;;7.77;4.57;;;;;;;31.31;33.89;99494.09;31026833;28;98398;-62
2022/08/16 17:03:21;;;;;;;5.20;3.78;;;;;;;31.19;34.16;99497.53;30940408;28;97365;-60
2022/08/16 17:18:22;;;;;;;8.32;3.80;;;;;;;30.64;34.80;99510.75;30841297;28;97449;-60
2022/08/16 17:33:23;;;;;;;8.43;5.57;;;;;;;30.33;35.42;99521.81;30841559;28;97178;-60
2022/08/16 17:48:24;;;;;;;9.30;5.60;;;;;;;29.80;36.31;99529.00;30840868;28;96864;-59
2022/08/16 18:03:31;;;;;;;5.60;3.70;;;;;;;29.25;37.42;99522.69;30849237;28;96847;-59
2022/08/16 18:18:31;;;;;;;7.00;4.20;;;;;;;28.62;39.70;99538.88;30838831;28;96990;-62
2022/08/16 18:33:34;;;;;;;8.90;4.75;;;;;;;28.07;41.64;99555.34;30850738;28;102617;-60
2022/08/16 18:48:34;;;;;;;31.90;20.10;;;;;;;27.41;43.31;99553.44;30954361;28;97051;-60
2022/08/16 19:03:34;;;;;;;9.27;4.93;;;;;;;26.95;44.42;99563.09;30984692;28;105712;-59
2022/08/16 19:18:35;;;;;;;14.55;8.90;;;;;;;26.60;45.73;99565.19;30930545;28;97397;-62
2022/08/16 19:33:36;;;;;;;8.30;5.43;;;;;;;26.09;46.19;99582.16;30854977;28;97342;-60
2022/08/16 19:48:37;;;;;;;9.20;5.70;;;;;;;25.57;47.26;99582.56;30852831;28;97365;-58
2022/08/16 20:03:37;;;;;;;9.90;6.73;;;;;;;25.31;47.94;99580.00;30851027;28;96834;-64
2022/08/16 20:18:39;;;;;;;11.30;5.53;;;;;;;25.42;48.60;99590.88;30849360;28;105293;-62
2022/08/16 20:33:39;;;;;;;43.93;34.63;;;;;;;25.41;49.82;99597.44;30847775;28;96758;-60
2022/08/16 20:48:40;;;;;;;9.27;6.80;;;;;;;25.37;50.00;99599.09;30846852;28;97307;-62
2022/08/16 21:03:41;;;;;;;10.05;7.22;;;;;;;25.17;50.65;99596.19;30846379;28;97276;-58
2022/08/16 21:18:41;;;;;;;11.68;6.43;;;;;;;24.63;51.30;99586.94;30912285;28;97041;-58
2022/08/16 21:33:43;;;;;;;8.50;5.93;;;;;;;24.03;52.46;99600.41;30972230;28;97277;-58
2022/08/16 21:48:43;;;;;;;9.63;6.03;;;;;;;23.64;53.82;99607.16;30972005;28;97533;-58
2022/08/16 22:03:44;;;;;;;8.45;4.97;;;;;;;23.82;55.02;99607.72;30974279;28;97176;-58
2022/08/16 22:18:44;;;;;;;10.07;6.90;;;;;;;23.74;55.88;99641.72;30973002;28;96666;-58
2022/08/16 22:33:45;;;;;;;;;;;;;;;22.86;57.60;99637.94;30986561;28;97490;-58
2022/08/16 22:48:48;;;;;;;;;;;;;;;22.52;59.81;99637.53;30995612;28;96722;-59
2022/08/16 23:03:49;;;;;;;9.83;7.20;;;;;;;22.25;59.93;99636.53;30993202;28;96851;-58
2022/08/16 23:18:51;;;;;;;11.55;7.78;;;;;;;21.68;61.82;99629.00;30990880;28;97310;-65
2022/08/16 23:33:51;;;;;;;11.07;8.00;;;;;;;21.95;62.64;99621.66;30989598;28;97734;-64
2022/08/16 23:48:51;;;;;;;11.60;8.07;;;;;;;21.97;62.88;99622.22;30987383;28;105987;-64
